Main page
METAR-TAF:

METAR-TAF

Airports :

Bodø Airport

Bodø, Norway

latitude: 67-16N, longitude: 014-22E, elevation: 1 m

Current weather observation

The report was made 37 minutes ago, at 22:50 UTC
Wind 19 kt from the East
Temperature -6°C
Humidity 62%
Pressure 1010 hPa
Visibility 10 km or more
no clouds below 1500 m and no cumulonimbus

METAR: ENBO 212250Z 08019KT CAVOK M06/M12 Q1010 NOSIG

Time: 00:27 (23:27 UTC)

Forecast

Forecast valid from 21 at 18 UTC to 22 at 18 UTC
Wind 18 kt from the East
Visibility 10 km or more
no clouds below 1500 m and no cumulonimbus

TAF: ENBO 2118/2218 10018KT CAVOK

Weather observations and forecasts of more than 4000 airports (METAR and TAF reports).

The available stations are represented by yellow and red dots on the map.

Hover mouse over dot to see the name of the station.

Then click to see weather observations and forecasts.

To change the map : click on the green buttons with a black cross to zoom in, on the green button with a dash to zoom out, or on the green arrows for adjacent maps.


METAR-TAF: